UAL1090 KIAH-MMMX
Flight info
| Callsign | UAL1090 |
|---|---|
| Flight time | 1h 57m |
| Altitude | 36000 |
| Route | RITAA7 WWREN DCT BRO DCT MAM UJ59 MAPIL/N0457F370 UJ59 TAM/N0455F380 UT100 ENAGA ENAGA3A |
| Aircraft | A319/M-SDE3FGHIRWY/LB1 |
Departure
| Time | 2026-05-05 20:39 |
|---|---|
| Airport | George Bush Intercontinental Airport (KIAH) |
Arrival
| Time | 2026-05-05 22:36 |
|---|---|
| Airport | Mexico City Benito Juárez International Airport (MMMX) |
| Time | Latitude | Longitude | Altitude | Speed | Heading |
|---|---|---|---|---|---|
| 2026-05-05 20:02 | 29.98542 | -95.33977 | 107 ft | 0 kts | 356° |
| 2026-05-05 20:27 | 29.98522 | -95.33975 | 106 ft | 4 kts | 348° |
| 2026-05-05 20:27 | 29.98497 | -95.33965 | 106 ft | 4 kts | 321° |
| 2026-05-05 20:28 | 29.98485 | -95.33944 | 107 ft | 3 kts | 260° |
| 2026-05-05 20:28 | 29.98486 | -95.33936 | 106 ft | 0 kts | 257° |
| 2026-05-05 20:33 | 29.98484 | -95.33946 | 106 ft | 4 kts | 255° |
| 2026-05-05 20:33 | 29.98448 | -95.33966 | 107 ft | 8 kts | 180° |
| 2026-05-05 20:33 | 29.98382 | -95.33968 | 107 ft | 11 kts | 186° |
| 2026-05-05 20:33 | 29.98314 | -95.34022 | 107 ft | 14 kts | 238° |
| 2026-05-05 20:34 | 29.98297 | -95.34134 | 107 ft | 15 kts | 268° |
| 2026-05-05 20:34 | 29.98298 | -95.34263 | 107 ft | 17 kts | 272° |
| 2026-05-05 20:34 | 29.98294 | -95.34403 | 107 ft | 18 kts | 252° |
| 2026-05-05 20:34 | 29.98253 | -95.34541 | 107 ft | 18 kts | 271° |
| 2026-05-05 20:35 | 29.98256 | -95.34692 | 107 ft | 20 kts | 271° |
| 2026-05-05 20:35 | 29.98257 | -95.34855 | 107 ft | 21 kts | 270° |
| 2026-05-05 20:35 | 29.98256 | -95.35025 | 107 ft | 20 kts | 269° |
| 2026-05-05 20:35 | 29.98297 | -95.35149 | 107 ft | 17 kts | 329° |
| 2026-05-05 20:36 | 29.98403 | -95.35216 | 107 ft | 18 kts | 331° |
| 2026-05-05 20:36 | 29.98516 | -95.35285 | 107 ft | 19 kts | 333° |
| 2026-05-05 20:36 | 29.98636 | -95.35358 | 107 ft | 20 kts | 331° |
| 2026-05-05 20:36 | 29.98763 | -95.35437 | 106 ft | 21 kts | 332° |
| 2026-05-05 20:37 | 29.98825 | -95.35505 | 107 ft | 11 kts | 271° |
| 2026-05-05 20:37 | 29.98787 | -95.35584 | 107 ft | 12 kts | 241° |
| 2026-05-05 20:37 | 29.98744 | -95.35676 | 107 ft | 14 kts | 242° |
| 2026-05-05 20:37 | 29.98679 | -95.35721 | 108 ft | 10 kts | 159° |
| 2026-05-05 20:38 | 29.98656 | -95.35706 | 106 ft | 0 kts | 150° |
| 2026-05-05 20:38 | 29.98546 | -95.35635 | 107 ft | 44 kts | 151° |
| 2026-05-05 20:38 | 29.98106 | -95.35371 | 107 ft | 98 kts | 152° |
| 2026-05-05 20:38 | 29.97350 | -95.34912 | 106 ft | 147 kts | 152° |
| 2026-05-05 20:39 | 29.96369 | -95.34311 | 460 ft | 159 kts | 153° |
| 2026-05-05 20:39 | 29.95506 | -95.33579 | 1125 ft | 154 kts | 140° |
| 2026-05-05 20:39 | 29.94819 | -95.32608 | 1633 ft | 157 kts | 133° |
| 2026-05-05 20:39 | 29.94143 | -95.31577 | 1926 ft | 171 kts | 132° |
| 2026-05-05 20:40 | 29.93334 | -95.30371 | 1958 ft | 205 kts | 133° |
| 2026-05-05 20:40 | 29.92397 | -95.29002 | 2282 ft | 230 kts | 133° |
| 2026-05-05 20:40 | 29.91349 | -95.27493 | 2763 ft | 250 kts | 133° |
| 2026-05-05 20:40 | 29.90238 | -95.25909 | 3513 ft | 259 kts | 134° |
| 2026-05-05 20:41 | 29.89082 | -95.24282 | 4321 ft | 265 kts | 134° |
| 2026-05-05 20:41 | 29.87934 | -95.22587 | 5140 ft | 272 kts | 131° |
| 2026-05-05 20:41 | 29.86814 | -95.20800 | 5901 ft | 278 kts | 129° |
| 2026-05-05 20:41 | 29.85695 | -95.18964 | 6635 ft | 283 kts | 129° |
| 2026-05-05 20:42 | 29.84552 | -95.17084 | 7325 ft | 289 kts | 129° |
| 2026-05-05 20:42 | 29.83388 | -95.15181 | 8040 ft | 293 kts | 129° |
| 2026-05-05 20:42 | 29.82124 | -95.13338 | 8735 ft | 294 kts | 140° |
| 2026-05-05 20:42 | 29.80533 | -95.11860 | 9446 ft | 295 kts | 147° |
| 2026-05-05 20:43 | 29.78884 | -95.10412 | 10064 ft | 302 kts | 147° |
| 2026-05-05 20:43 | 29.76973 | -95.09424 | 10201 ft | 316 kts | 174° |
| 2026-05-05 20:43 | 29.74693 | -95.09466 | 10333 ft | 332 kts | 194° |
| 2026-05-05 20:43 | 29.72467 | -95.10256 | 10662 ft | 340 kts | 206° |
| 2026-05-05 20:44 | 29.70427 | -95.11646 | 11192 ft | 343 kts | 219° |
| 2026-05-05 20:44 | 29.68550 | -95.13363 | 11797 ft | 345 kts | 220° |
| 2026-05-05 20:44 | 29.66670 | -95.15092 | 12375 ft | 348 kts | 221° |
| 2026-05-05 20:44 | 29.64807 | -95.16894 | 12951 ft | 350 kts | 224° |
| 2026-05-05 20:45 | 29.61264 | -95.20727 | 14106 ft | 354 kts | 227° |
| 2026-05-05 20:45 | 29.59456 | -95.22660 | 14650 ft | 357 kts | 222° |
| 2026-05-05 20:45 | 29.57352 | -95.24219 | 15178 ft | 364 kts | 211° |
| 2026-05-05 20:46 | 29.55083 | -95.25525 | 15722 ft | 366 kts | 210° |
| 2026-05-05 20:46 | 29.52792 | -95.26816 | 16276 ft | 368 kts | 210° |
| 2026-05-05 20:46 | 29.50480 | -95.28106 | 16803 ft | 371 kts | 210° |
| 2026-05-05 20:46 | 29.48153 | -95.29401 | 17342 ft | 373 kts | 211° |
| 2026-05-05 20:47 | 29.45813 | -95.30708 | 17880 ft | 375 kts | 211° |
| 2026-05-05 20:47 | 29.43459 | -95.32026 | 18386 ft | 378 kts | 211° |
| 2026-05-05 20:47 | 29.41089 | -95.33358 | 18798 ft | 381 kts | 211° |
| 2026-05-05 20:47 | 29.38700 | -95.34699 | 19280 ft | 383 kts | 211° |
| 2026-05-05 20:48 | 29.36299 | -95.36046 | 19753 ft | 385 kts | 212° |
| 2026-05-05 20:48 | 29.33883 | -95.37396 | 20242 ft | 387 kts | 212° |
| 2026-05-05 20:48 | 29.31454 | -95.38753 | 20700 ft | 389 kts | 212° |
| 2026-05-05 20:48 | 29.29013 | -95.40117 | 21142 ft | 391 kts | 212° |
| 2026-05-05 20:49 | 29.26558 | -95.41487 | 21575 ft | 394 kts | 213° |
| 2026-05-05 20:49 | 29.24117 | -95.42850 | 21991 ft | 396 kts | 213° |
| 2026-05-05 20:49 | 29.21636 | -95.44234 | 22401 ft | 397 kts | 213° |
| 2026-05-05 20:49 | 29.19150 | -95.45621 | 22808 ft | 399 kts | 213° |
| 2026-05-05 20:50 | 29.16646 | -95.47019 | 23203 ft | 401 kts | 213° |
| 2026-05-05 20:50 | 29.14128 | -95.48424 | 23578 ft | 403 kts | 213° |
| 2026-05-05 20:50 | 29.11601 | -95.49836 | 23870 ft | 405 kts | 213° |
| 2026-05-05 20:50 | 29.09060 | -95.51253 | 24189 ft | 407 kts | 213° |
| 2026-05-05 20:51 | 29.06509 | -95.52674 | 24520 ft | 409 kts | 213° |
| 2026-05-05 20:51 | 29.03943 | -95.54101 | 24850 ft | 410 kts | 213° |
| 2026-05-05 20:51 | 29.01373 | -95.55527 | 25181 ft | 411 kts | 213° |
| 2026-05-05 20:51 | 28.98803 | -95.56956 | 25503 ft | 412 kts | 213° |
| 2026-05-05 20:52 | 28.96214 | -95.58399 | 25824 ft | 414 kts | 213° |
| 2026-05-05 20:52 | 28.93627 | -95.59836 | 26136 ft | 415 kts | 213° |
| 2026-05-05 20:52 | 28.91025 | -95.61278 | 26449 ft | 416 kts | 213° |
| 2026-05-05 20:52 | 28.88429 | -95.62751 | 26733 ft | 417 kts | 214° |
| 2026-05-05 20:53 | 28.85865 | -95.64309 | 27040 ft | 417 kts | 216° |
| 2026-05-05 20:53 | 28.83366 | -95.65898 | 27325 ft | 417 kts | 216° |
| 2026-05-05 20:53 | 28.80843 | -95.67536 | 27604 ft | 419 kts | 217° |
| 2026-05-05 20:53 | 28.78303 | -95.69185 | 27889 ft | 421 kts | 216° |
| 2026-05-05 20:54 | 28.75739 | -95.70831 | 28167 ft | 423 kts | 216° |
| 2026-05-05 20:54 | 28.73170 | -95.72462 | 28467 ft | 424 kts | 216° |
| 2026-05-05 20:54 | 28.70578 | -95.74090 | 28770 ft | 425 kts | 216° |
| 2026-05-05 20:54 | 28.67987 | -95.75712 | 29070 ft | 427 kts | 216° |
| 2026-05-05 20:55 | 28.65377 | -95.77346 | 29359 ft | 428 kts | 216° |
| 2026-05-05 20:55 | 28.62770 | -95.78978 | 29623 ft | 429 kts | 216° |
| 2026-05-05 20:55 | 28.60141 | -95.80620 | 29889 ft | 431 kts | 216° |
| 2026-05-05 20:55 | 28.57514 | -95.82257 | 30187 ft | 430 kts | 216° |
| 2026-05-05 20:56 | 28.54894 | -95.83887 | 30510 ft | 429 kts | 216° |
| 2026-05-05 20:56 | 28.52282 | -95.85516 | 30785 ft | 428 kts | 215° |
| 2026-05-05 20:56 | 28.49671 | -95.87148 | 31057 ft | 428 kts | 215° |
| 2026-05-05 20:56 | 28.47067 | -95.88777 | 31343 ft | 428 kts | 215° |
| 2026-05-05 20:57 | 28.44460 | -95.90405 | 31655 ft | 427 kts | 215° |
| 2026-05-05 20:57 | 28.41856 | -95.92027 | 31979 ft | 426 kts | 215° |
| 2026-05-05 20:57 | 28.39257 | -95.93645 | 32295 ft | 426 kts | 215° |
| 2026-05-05 20:57 | 28.36663 | -95.95259 | 32622 ft | 425 kts | 216° |
| 2026-05-05 20:58 | 28.34075 | -95.96871 | 32953 ft | 424 kts | 216° |
| 2026-05-05 20:58 | 28.31492 | -95.98477 | 33299 ft | 423 kts | 216° |
| 2026-05-05 20:58 | 28.28915 | -96.00078 | 33633 ft | 422 kts | 216° |
| 2026-05-05 20:58 | 28.26378 | -96.01653 | 33971 ft | 421 kts | 216° |
| 2026-05-05 20:59 | 28.23812 | -96.03247 | 34254 ft | 420 kts | 216° |
| 2026-05-05 20:59 | 28.21212 | -96.04863 | 34490 ft | 421 kts | 215° |
| 2026-05-05 20:59 | 28.18681 | -96.06435 | 34729 ft | 422 kts | 215° |
| 2026-05-05 20:59 | 28.16101 | -96.08032 | 34994 ft | 422 kts | 215° |
| 2026-05-05 21:00 | 28.13526 | -96.09626 | 35262 ft | 421 kts | 215° |
| 2026-05-05 21:00 | 28.10951 | -96.11203 | 35565 ft | 420 kts | 214° |
| 2026-05-05 21:00 | 28.08363 | -96.12750 | 35789 ft | 421 kts | 214° |
| 2026-05-05 21:00 | 28.05760 | -96.14280 | 35848 ft | 420 kts | 214° |
| 2026-05-05 21:01 | 28.00579 | -96.17305 | 35846 ft | 419 kts | 214° |
| 2026-05-05 21:01 | 27.95407 | -96.20331 | 35846 ft | 418 kts | 214° |
| 2026-05-05 21:02 | 27.91112 | -96.22857 | 35835 ft | 419 kts | 214° |
| 2026-05-05 21:02 | 27.85939 | -96.25910 | 35841 ft | 420 kts | 214° |
| 2026-05-05 21:03 | 27.80754 | -96.28961 | 35838 ft | 420 kts | 214° |
| 2026-05-05 21:03 | 27.75572 | -96.32002 | 35838 ft | 420 kts | 214° |
| 2026-05-05 21:04 | 27.70391 | -96.35042 | 35839 ft | 420 kts | 214° |
| 2026-05-05 21:04 | 27.65207 | -96.38076 | 35836 ft | 420 kts | 214° |
| 2026-05-05 21:05 | 27.60026 | -96.41112 | 35830 ft | 420 kts | 214° |
| 2026-05-05 21:05 | 27.54874 | -96.44130 | 35832 ft | 420 kts | 214° |
| 2026-05-05 21:06 | 27.49688 | -96.47156 | 35838 ft | 420 kts | 214° |
| 2026-05-05 21:06 | 27.44508 | -96.50174 | 35844 ft | 419 kts | 214° |
| 2026-05-05 21:07 | 27.39339 | -96.53190 | 35846 ft | 418 kts | 214° |
| 2026-05-05 21:07 | 27.34174 | -96.56196 | 35836 ft | 418 kts | 214° |
| 2026-05-05 21:08 | 27.29011 | -96.59200 | 35810 ft | 418 kts | 213° |
| 2026-05-05 21:08 | 27.23843 | -96.62204 | 35810 ft | 418 kts | 213° |
| 2026-05-05 21:09 | 27.18665 | -96.65204 | 35812 ft | 419 kts | 213° |
| 2026-05-05 21:09 | 27.13479 | -96.68209 | 35813 ft | 419 kts | 213° |
| 2026-05-05 21:10 | 27.08297 | -96.71213 | 35809 ft | 419 kts | 213° |
| 2026-05-05 21:10 | 27.03107 | -96.74216 | 35811 ft | 419 kts | 213° |
| 2026-05-05 21:11 | 26.97922 | -96.77206 | 35794 ft | 420 kts | 213° |
| 2026-05-05 21:11 | 26.92758 | -96.80186 | 35799 ft | 421 kts | 213° |
| 2026-05-05 21:12 | 26.87555 | -96.83194 | 35802 ft | 421 kts | 213° |
| 2026-05-05 21:12 | 26.82346 | -96.86201 | 35800 ft | 421 kts | 213° |
| 2026-05-05 21:13 | 26.77133 | -96.89198 | 35802 ft | 421 kts | 213° |
| 2026-05-05 21:13 | 26.71921 | -96.92191 | 35804 ft | 421 kts | 213° |
| 2026-05-05 21:14 | 26.66708 | -96.95183 | 35786 ft | 421 kts | 213° |
| 2026-05-05 21:14 | 26.61493 | -96.98172 | 35788 ft | 422 kts | 213° |
| 2026-05-05 21:15 | 26.56261 | -97.01173 | 35790 ft | 422 kts | 213° |
| 2026-05-05 21:15 | 26.51033 | -97.04173 | 35805 ft | 423 kts | 213° |
| 2026-05-05 21:16 | 26.45798 | -97.07165 | 35792 ft | 423 kts | 212° |
| 2026-05-05 21:16 | 26.40590 | -97.10139 | 35799 ft | 423 kts | 212° |
| 2026-05-05 21:17 | 26.35351 | -97.13130 | 35773 ft | 423 kts | 212° |
| 2026-05-05 21:17 | 26.30069 | -97.16136 | 35783 ft | 424 kts | 212° |
| 2026-05-05 21:18 | 26.24841 | -97.19110 | 35784 ft | 424 kts | 212° |
| 2026-05-05 21:18 | 26.19580 | -97.22104 | 35785 ft | 425 kts | 212° |
| 2026-05-05 21:19 | 26.14314 | -97.25097 | 35787 ft | 425 kts | 212° |
| 2026-05-05 21:19 | 26.09044 | -97.28093 | 35785 ft | 425 kts | 212° |
| 2026-05-05 21:20 | 26.03783 | -97.31080 | 35768 ft | 425 kts | 212° |
| 2026-05-05 21:20 | 25.98507 | -97.34069 | 35776 ft | 426 kts | 212° |
| 2026-05-05 21:21 | 25.93248 | -97.37098 | 35779 ft | 424 kts | 216° |
| 2026-05-05 21:21 | 25.88699 | -97.41139 | 35783 ft | 418 kts | 225° |
| 2026-05-05 21:22 | 25.84325 | -97.45401 | 35786 ft | 418 kts | 225° |
| 2026-05-05 21:22 | 25.79893 | -97.49599 | 35786 ft | 421 kts | 219° |
| 2026-05-05 21:23 | 25.74565 | -97.52408 | 35762 ft | 433 kts | 199° |
| 2026-05-05 21:23 | 25.68517 | -97.53252 | 35768 ft | 440 kts | 190° |
| 2026-05-05 21:24 | 25.62450 | -97.53864 | 35772 ft | 441 kts | 190° |
| 2026-05-05 21:24 | 25.56333 | -97.54479 | 35775 ft | 442 kts | 190° |
| 2026-05-05 21:25 | 25.50210 | -97.55095 | 35776 ft | 442 kts | 190° |
| 2026-05-05 21:25 | 25.44084 | -97.55709 | 35768 ft | 442 kts | 190° |
| 2026-05-05 21:26 | 25.37958 | -97.56325 | 35773 ft | 442 kts | 190° |
| 2026-05-05 21:26 | 25.31838 | -97.56970 | 35775 ft | 441 kts | 191° |
| 2026-05-05 21:27 | 25.25737 | -97.57713 | 35775 ft | 441 kts | 191° |
| 2026-05-05 21:27 | 25.19642 | -97.58479 | 35778 ft | 441 kts | 191° |
| 2026-05-05 21:28 | 25.13542 | -97.59218 | 35779 ft | 441 kts | 191° |
| 2026-05-05 21:28 | 25.07486 | -97.59940 | 35764 ft | 440 kts | 191° |
| 2026-05-05 21:29 | 25.01385 | -97.60599 | 35766 ft | 441 kts | 189° |
| 2026-05-05 21:29 | 24.95273 | -97.61160 | 35770 ft | 441 kts | 189° |
| 2026-05-05 21:30 | 24.89163 | -97.61712 | 35768 ft | 440 kts | 189° |
| 2026-05-05 21:30 | 24.83059 | -97.62290 | 35769 ft | 440 kts | 189° |
| 2026-05-05 21:31 | 24.76967 | -97.62888 | 35759 ft | 440 kts | 189° |
| 2026-05-05 21:31 | 24.70869 | -97.63486 | 35762 ft | 440 kts | 189° |
| 2026-05-05 21:32 | 24.64762 | -97.64074 | 35763 ft | 440 kts | 189° |
| 2026-05-05 21:32 | 24.58661 | -97.64649 | 35762 ft | 440 kts | 189° |
| 2026-05-05 21:33 | 24.52568 | -97.65227 | 35766 ft | 440 kts | 189° |
| 2026-05-05 21:33 | 24.46469 | -97.65811 | 35767 ft | 440 kts | 189° |
| 2026-05-05 21:34 | 24.40370 | -97.66403 | 35760 ft | 440 kts | 189° |
| 2026-05-05 21:34 | 24.34263 | -97.66983 | 35764 ft | 440 kts | 189° |
| 2026-05-05 21:35 | 24.28201 | -97.67554 | 35762 ft | 440 kts | 189° |
| 2026-05-05 21:35 | 24.22100 | -97.68139 | 35764 ft | 440 kts | 189° |
| 2026-05-05 21:36 | 24.16007 | -97.68733 | 35752 ft | 440 kts | 189° |
| 2026-05-05 21:36 | 24.09905 | -97.69320 | 35755 ft | 440 kts | 189° |
| 2026-05-05 21:37 | 24.03799 | -97.69895 | 35755 ft | 440 kts | 188° |
| 2026-05-05 21:37 | 23.97692 | -97.70467 | 35758 ft | 440 kts | 188° |
| 2026-05-05 21:38 | 23.91584 | -97.71038 | 35767 ft | 440 kts | 189° |
| 2026-05-05 21:38 | 23.85476 | -97.71619 | 35752 ft | 440 kts | 188° |
| 2026-05-05 21:39 | 23.79368 | -97.72206 | 35754 ft | 441 kts | 188° |
| 2026-05-05 21:39 | 23.73257 | -97.72791 | 35762 ft | 441 kts | 188° |
| 2026-05-05 21:40 | 23.67144 | -97.73370 | 35759 ft | 441 kts | 188° |
| 2026-05-05 21:40 | 23.61070 | -97.73944 | 35762 ft | 441 kts | 188° |
| 2026-05-05 21:41 | 23.54947 | -97.74518 | 35751 ft | 441 kts | 188° |
| 2026-05-05 21:41 | 23.48829 | -97.75091 | 35755 ft | 441 kts | 188° |
| 2026-05-05 21:42 | 23.42711 | -97.75669 | 35762 ft | 441 kts | 188° |
| 2026-05-05 21:42 | 23.36592 | -97.76245 | 35764 ft | 441 kts | 188° |
| 2026-05-05 21:43 | 23.30475 | -97.76824 | 35762 ft | 441 kts | 188° |
| 2026-05-05 21:43 | 23.24356 | -97.77395 | 35769 ft | 441 kts | 188° |
| 2026-05-05 21:44 | 23.18236 | -97.77968 | 35760 ft | 441 kts | 188° |
| 2026-05-05 21:44 | 23.12114 | -97.78541 | 35762 ft | 442 kts | 188° |
| 2026-05-05 21:45 | 23.06030 | -97.79114 | 35767 ft | 442 kts | 188° |
| 2026-05-05 21:45 | 22.99903 | -97.79692 | 35766 ft | 442 kts | 188° |
| 2026-05-05 21:46 | 22.93774 | -97.80265 | 35770 ft | 442 kts | 188° |
| 2026-05-05 21:46 | 22.87643 | -97.80832 | 35766 ft | 442 kts | 188° |
| 2026-05-05 21:47 | 22.81511 | -97.81406 | 35768 ft | 442 kts | 188° |
| 2026-05-05 21:47 | 22.75378 | -97.81985 | 35769 ft | 442 kts | 188° |
| 2026-05-05 21:48 | 22.69244 | -97.82554 | 35772 ft | 442 kts | 188° |
| 2026-05-05 21:48 | 22.63111 | -97.83126 | 35767 ft | 442 kts | 188° |
| 2026-05-05 21:49 | 22.56971 | -97.83697 | 35761 ft | 442 kts | 187° |
| 2026-05-05 21:49 | 22.50880 | -97.84265 | 35761 ft | 442 kts | 187° |
| 2026-05-05 21:50 | 22.44752 | -97.84836 | 35775 ft | 442 kts | 187° |
| 2026-05-05 21:50 | 22.38626 | -97.85404 | 35779 ft | 442 kts | 187° |
| 2026-05-05 21:51 | 22.32501 | -97.85970 | 35779 ft | 442 kts | 187° |
| 2026-05-05 21:51 | 22.27375 | -97.86438 | 35778 ft | 442 kts | 187° |
| 2026-05-05 21:52 | 22.18192 | -97.87013 | 35772 ft | 442 kts | 185° |
| 2026-05-05 21:53 | 22.12038 | -97.87343 | 35769 ft | 442 kts | 185° |
| 2026-05-05 21:53 | 22.05892 | -97.87707 | 35764 ft | 442 kts | 185° |
| 2026-05-05 21:54 | 21.99750 | -97.88088 | 35756 ft | 442 kts | 185° |
| 2026-05-05 21:54 | 21.93612 | -97.88469 | 35742 ft | 442 kts | 185° |
| 2026-05-05 21:55 | 21.87478 | -97.88849 | 35742 ft | 441 kts | 185° |
| 2026-05-05 21:55 | 21.81349 | -97.89233 | 35743 ft | 441 kts | 185° |
| 2026-05-05 21:56 | 21.75223 | -97.89605 | 35734 ft | 441 kts | 185° |
| 2026-05-05 21:56 | 21.69097 | -97.89974 | 35734 ft | 441 kts | 185° |
| 2026-05-05 21:57 | 21.62980 | -97.90349 | 35734 ft | 441 kts | 185° |
| 2026-05-05 21:57 | 21.56853 | -97.90723 | 35731 ft | 441 kts | 185° |
| 2026-05-05 21:58 | 21.50768 | -97.91089 | 35734 ft | 441 kts | 185° |
| 2026-05-05 21:58 | 21.44656 | -97.91566 | 35736 ft | 439 kts | 191° |
| 2026-05-05 21:59 | 21.38645 | -97.92718 | 35741 ft | 439 kts | 191° |
| 2026-05-05 21:59 | 21.32622 | -97.93857 | 35745 ft | 439 kts | 191° |
| 2026-05-05 22:00 | 21.26598 | -97.94996 | 35747 ft | 440 kts | 191° |
| 2026-05-05 22:00 | 21.20573 | -97.96137 | 35755 ft | 440 kts | 191° |
| 2026-05-05 22:01 | 21.14546 | -97.97276 | 35759 ft | 440 kts | 191° |
| 2026-05-05 22:01 | 21.08511 | -97.98418 | 35755 ft | 440 kts | 191° |
| 2026-05-05 22:02 | 21.02487 | -97.99556 | 35761 ft | 440 kts | 191° |
| 2026-05-05 22:02 | 20.96456 | -98.00696 | 35759 ft | 440 kts | 191° |
| 2026-05-05 22:03 | 20.90457 | -98.01832 | 35749 ft | 440 kts | 191° |
| 2026-05-05 22:03 | 20.84416 | -98.02970 | 35746 ft | 441 kts | 191° |
| 2026-05-05 22:04 | 20.78369 | -98.04107 | 35753 ft | 441 kts | 191° |
| 2026-05-05 22:04 | 20.72319 | -98.05245 | 35760 ft | 441 kts | 191° |
| 2026-05-05 22:05 | 20.66269 | -98.06380 | 35781 ft | 441 kts | 191° |
| 2026-05-05 22:05 | 20.60218 | -98.07515 | 35776 ft | 441 kts | 191° |
| 2026-05-05 22:06 | 20.54163 | -98.08651 | 35795 ft | 442 kts | 191° |
| 2026-05-05 22:06 | 20.48098 | -98.09795 | 35797 ft | 442 kts | 191° |
| 2026-05-05 22:07 | 20.42016 | -98.10867 | 35793 ft | 443 kts | 191° |
| 2026-05-05 22:07 | 20.35982 | -98.12023 | 35827 ft | 443 kts | 191° |
| 2026-05-05 22:07 | 20.32945 | -98.12616 | 35707 ft | 444 kts | 191° |
| 2026-05-05 22:08 | 20.29907 | -98.13203 | 35466 ft | 443 kts | 191° |
| 2026-05-05 22:08 | 20.26868 | -98.13782 | 35251 ft | 444 kts | 191° |
| 2026-05-05 22:08 | 20.23823 | -98.14354 | 35029 ft | 445 kts | 191° |
| 2026-05-05 22:08 | 20.20770 | -98.14921 | 34801 ft | 445 kts | 191° |
| 2026-05-05 22:09 | 20.17718 | -98.15486 | 34429 ft | 445 kts | 191° |
| 2026-05-05 22:09 | 20.14643 | -98.16058 | 33545 ft | 452 kts | 191° |
| 2026-05-05 22:09 | 20.11521 | -98.16646 | 32559 ft | 458 kts | 192° |
| 2026-05-05 22:09 | 20.08459 | -98.17615 | 31607 ft | 462 kts | 204° |
| 2026-05-05 22:10 | 20.05653 | -98.19290 | 30642 ft | 465 kts | 216° |
| 2026-05-05 22:10 | 20.03244 | -98.21621 | 29497 ft | 474 kts | 229° |
| 2026-05-05 22:10 | 20.01436 | -98.24536 | 28947 ft | 468 kts | 242° |
| 2026-05-05 22:10 | 20.00262 | -98.27745 | 28706 ft | 466 kts | 254° |
| 2026-05-05 22:11 | 19.99529 | -98.31095 | 28453 ft | 464 kts | 257° |
| 2026-05-05 22:11 | 19.98841 | -98.34397 | 28202 ft | 463 kts | 257° |
| 2026-05-05 22:11 | 19.98159 | -98.37735 | 27950 ft | 461 kts | 256° |
| 2026-05-05 22:11 | 19.97488 | -98.41067 | 27700 ft | 459 kts | 257° |
| 2026-05-05 22:12 | 19.96823 | -98.44386 | 27449 ft | 459 kts | 257° |
| 2026-05-05 22:12 | 19.96158 | -98.47698 | 27204 ft | 458 kts | 256° |
| 2026-05-05 22:12 | 19.95489 | -98.50999 | 26947 ft | 456 kts | 257° |
| 2026-05-05 22:12 | 19.94818 | -98.54296 | 26934 ft | 456 kts | 257° |
| 2026-05-05 22:13 | 19.94146 | -98.57595 | 26942 ft | 457 kts | 256° |
| 2026-05-05 22:13 | 19.93478 | -98.60893 | 26941 ft | 457 kts | 257° |
| 2026-05-05 22:13 | 19.92811 | -98.64192 | 26942 ft | 457 kts | 257° |
| 2026-05-05 22:13 | 19.92143 | -98.67493 | 26917 ft | 458 kts | 255° |
| 2026-05-05 22:14 | 19.91467 | -98.70803 | 26948 ft | 459 kts | 256° |
| 2026-05-05 22:14 | 19.90822 | -98.74127 | 26984 ft | 460 kts | 259° |
| 2026-05-05 22:14 | 19.90412 | -98.77515 | 26397 ft | 463 kts | 262° |
| 2026-05-05 22:14 | 19.90027 | -98.80939 | 25436 ft | 468 kts | 262° |
| 2026-05-05 22:15 | 19.89657 | -98.84319 | 24745 ft | 466 kts | 262° |
| 2026-05-05 22:15 | 19.89299 | -98.87740 | 24014 ft | 464 kts | 264° |
| 2026-05-05 22:15 | 19.89442 | -98.91161 | 23196 ft | 465 kts | 280° |
| 2026-05-05 22:15 | 19.90489 | -98.94399 | 22303 ft | 465 kts | 297° |
| 2026-05-05 22:16 | 19.92353 | -98.97180 | 21423 ft | 462 kts | 314° |
| 2026-05-05 22:16 | 19.94871 | -98.99269 | 20554 ft | 459 kts | 330° |
| 2026-05-05 22:16 | 19.97827 | -99.00493 | 19692 ft | 456 kts | 347° |
| 2026-05-05 22:16 | 20.00967 | -99.00754 | 18852 ft | 453 kts | 4° |
| 2026-05-05 22:17 | 20.04022 | -99.00037 | 17995 ft | 450 kts | 20° |
| 2026-05-05 22:17 | 20.06763 | -98.98474 | 17073 ft | 446 kts | 34° |
| 2026-05-05 22:17 | 20.08994 | -98.96219 | 16169 ft | 442 kts | 52° |
| 2026-05-05 22:17 | 20.10479 | -98.93382 | 15346 ft | 439 kts | 70° |
| 2026-05-05 22:18 | 20.11091 | -98.90227 | 14538 ft | 435 kts | 86° |
| 2026-05-05 22:18 | 20.11155 | -98.87020 | 13748 ft | 432 kts | 89° |
| 2026-05-05 22:18 | 20.11153 | -98.83823 | 12878 ft | 430 kts | 93° |
| 2026-05-05 22:18 | 20.10792 | -98.80729 | 12037 ft | 426 kts | 98° |
| 2026-05-05 22:19 | 20.10349 | -98.77624 | 11257 ft | 422 kts | 98° |
| 2026-05-05 22:19 | 20.09901 | -98.74563 | 10552 ft | 415 kts | 98° |
| 2026-05-05 22:19 | 20.09431 | -98.71562 | 9802 ft | 408 kts | 102° |
| 2026-05-05 22:19 | 20.08436 | -98.68775 | 9120 ft | 399 kts | 119° |
| 2026-05-05 22:20 | 20.06773 | -98.66516 | 9538 ft | 380 kts | 135° |
| 2026-05-05 22:20 | 20.04734 | -98.64826 | 10458 ft | 367 kts | 148° |
| 2026-05-05 22:20 | 20.02478 | -98.63572 | 11123 ft | 366 kts | 153° |
| 2026-05-05 22:20 | 20.00189 | -98.62386 | 11709 ft | 367 kts | 154° |
| 2026-05-05 22:21 | 19.97975 | -98.61025 | 12257 ft | 370 kts | 141° |
| 2026-05-05 22:21 | 19.96262 | -98.58975 | 12786 ft | 374 kts | 125° |
| 2026-05-05 22:21 | 19.94825 | -98.56652 | 13338 ft | 378 kts | 123° |
| 2026-05-05 22:21 | 19.93409 | -98.54319 | 13602 ft | 367 kts | 123° |
| 2026-05-05 22:22 | 19.92017 | -98.52137 | 13657 ft | 346 kts | 130° |
| 2026-05-05 22:22 | 19.90215 | -98.50572 | 13662 ft | 328 kts | 153° |
| 2026-05-05 22:22 | 19.88116 | -98.49929 | 13663 ft | 314 kts | 177° |
| 2026-05-05 22:22 | 19.86024 | -98.50247 | 13663 ft | 298 kts | 202° |
| 2026-05-05 22:23 | 19.84352 | -98.51437 | 13669 ft | 289 kts | 228° |
| 2026-05-05 22:23 | 19.83368 | -98.53270 | 13664 ft | 288 kts | 254° |
| 2026-05-05 22:23 | 19.83266 | -98.55409 | 13667 ft | 290 kts | 281° |
| 2026-05-05 22:23 | 19.83959 | -98.57425 | 13674 ft | 292 kts | 294° |
| 2026-05-05 22:24 | 19.84842 | -98.59375 | 13664 ft | 293 kts | 295° |
| 2026-05-05 22:24 | 19.85961 | -98.61173 | 13665 ft | 293 kts | 314° |
| 2026-05-05 22:24 | 19.87338 | -98.62730 | 13663 ft | 293 kts | 305° |
| 2026-05-05 22:24 | 19.88270 | -98.64643 | 13633 ft | 292 kts | 287° |
| 2026-05-05 22:25 | 19.88630 | -98.66753 | 13644 ft | 290 kts | 270° |
| 2026-05-05 22:25 | 19.88438 | -98.68878 | 13609 ft | 290 kts | 255° |
| 2026-05-05 22:25 | 19.87716 | -98.70857 | 13507 ft | 286 kts | 239° |
| 2026-05-05 22:25 | 19.86525 | -98.72542 | 13413 ft | 287 kts | 223° |
| 2026-05-05 22:26 | 19.84930 | -98.73820 | 13319 ft | 288 kts | 207° |
| 2026-05-05 22:26 | 19.83064 | -98.74573 | 13218 ft | 287 kts | 190° |
| 2026-05-05 22:26 | 19.81084 | -98.74748 | 13111 ft | 285 kts | 175° |
| 2026-05-05 22:26 | 19.79094 | -98.74426 | 12997 ft | 296 kts | 170° |
| 2026-05-05 22:27 | 19.77062 | -98.74227 | 12876 ft | 295 kts | 178° |
| 2026-05-05 22:27 | 19.74990 | -98.74307 | 12750 ft | 295 kts | 185° |
| 2026-05-05 22:27 | 19.73002 | -98.74661 | 12634 ft | 284 kts | 192° |
| 2026-05-05 22:27 | 19.71144 | -98.75236 | 12529 ft | 272 kts | 197° |
| 2026-05-05 22:28 | 19.69387 | -98.75843 | 12428 ft | 260 kts | 197° |
| 2026-05-05 22:28 | 19.67710 | -98.76420 | 12184 ft | 251 kts | 196° |
| 2026-05-05 22:28 | 19.66084 | -98.76977 | 12086 ft | 240 kts | 196° |
| 2026-05-05 22:28 | 19.64505 | -98.77517 | 11883 ft | 237 kts | 196° |
| 2026-05-05 22:29 | 19.62948 | -98.78051 | 11711 ft | 233 kts | 196° |
| 2026-05-05 22:29 | 19.61405 | -98.78578 | 11692 ft | 233 kts | 196° |
| 2026-05-05 22:29 | 19.59898 | -98.79215 | 11673 ft | 234 kts | 209° |
| 2026-05-05 22:29 | 19.58624 | -98.80300 | 11647 ft | 238 kts | 227° |
| 2026-05-05 22:30 | 19.57688 | -98.81762 | 11322 ft | 241 kts | 238° |
| 2026-05-05 22:30 | 19.56839 | -98.83303 | 11012 ft | 242 kts | 238° |
| 2026-05-05 22:30 | 19.55988 | -98.84839 | 10758 ft | 240 kts | 238° |
| 2026-05-05 22:30 | 19.55155 | -98.86333 | 10477 ft | 232 kts | 237° |
| 2026-05-05 22:31 | 19.54344 | -98.87783 | 10193 ft | 223 kts | 238° |
| 2026-05-05 22:31 | 19.53577 | -98.89158 | 9926 ft | 210 kts | 237° |
| 2026-05-05 22:31 | 19.52861 | -98.90439 | 9677 ft | 194 kts | 238° |
| 2026-05-05 22:31 | 19.52194 | -98.91632 | 9563 ft | 181 kts | 238° |
| 2026-05-05 22:32 | 19.51585 | -98.92721 | 9435 ft | 163 kts | 239° |
| 2026-05-05 22:32 | 19.51022 | -98.93728 | 9256 ft | 155 kts | 239° |
| 2026-05-05 22:32 | 19.50486 | -98.94684 | 8983 ft | 148 kts | 237° |
| 2026-05-05 22:32 | 19.49966 | -98.95614 | 8958 ft | 146 kts | 236° |
| 2026-05-05 22:33 | 19.49443 | -98.96548 | 8971 ft | 148 kts | 239° |
| 2026-05-05 22:33 | 19.48914 | -98.97493 | 8965 ft | 150 kts | 238° |
| 2026-05-05 22:33 | 19.48382 | -98.98444 | 9010 ft | 149 kts | 237° |
| 2026-05-05 22:33 | 19.47850 | -98.99393 | 8872 ft | 153 kts | 237° |
| 2026-05-05 22:34 | 19.47312 | -99.00354 | 8656 ft | 148 kts | 238° |
| 2026-05-05 22:34 | 19.46783 | -99.01300 | 8354 ft | 151 kts | 238° |
| 2026-05-05 22:34 | 19.46250 | -99.02252 | 8071 ft | 148 kts | 236° |
| 2026-05-05 22:34 | 19.45725 | -99.03185 | 7964 ft | 144 kts | 237° |
| 2026-05-05 22:35 | 19.45194 | -99.04122 | 7741 ft | 154 kts | 237° |
| 2026-05-05 22:35 | 19.44644 | -99.05104 | 7521 ft | 154 kts | 237° |
| 2026-05-05 22:35 | 19.44129 | -99.06039 | 7351 ft | 139 kts | 237° |
| 2026-05-05 22:35 | 19.43678 | -99.06821 | 7303 ft | 109 kts | 239° |
| 2026-05-05 22:36 | 19.43388 | -99.07366 | 7304 ft | 59 kts | 239° |
| 2026-05-05 22:36 | 19.43268 | -99.07582 | 7304 ft | 10 kts | 239° |
| 2026-05-05 22:36 | 19.43251 | -99.07610 | 7304 ft | 10 kts | 237° |
| 2026-05-05 22:36 | 19.43181 | -99.07722 | 7305 ft | 24 kts | 237° |
| 2026-05-05 22:37 | 19.43082 | -99.07892 | 7304 ft | 30 kts | 239° |
| 2026-05-05 22:37 | 19.43009 | -99.08071 | 7304 ft | 22 kts | 268° |
| 2026-05-05 22:37 | 19.43016 | -99.08253 | 7303 ft | 26 kts | 272° |
| 2026-05-05 22:37 | 19.43022 | -99.08420 | 7303 ft | 14 kts | 272° |
| 2026-05-05 22:38 | 19.43028 | -99.08537 | 7302 ft | 18 kts | 278° |
| 2026-05-05 22:38 | 19.43107 | -99.08623 | 7303 ft | 14 kts | 349° |
| 2026-05-05 22:38 | 19.43170 | -99.08553 | 7303 ft | 15 kts | 60° |
| 2026-05-05 22:38 | 19.43223 | -99.08456 | 7303 ft | 8 kts | 58° |
| 2026-05-05 22:39 | 19.43261 | -99.08432 | 7303 ft | 7 kts | 345° |
| 2026-05-05 22:39 | 19.43294 | -99.08458 | 7303 ft | 6 kts | 327° |
| 2026-05-05 22:39 | 19.43314 | -99.08470 | 7303 ft | 1 kts | 330° |
| 2026-05-05 22:39 | 19.43321 | -99.08473 | 7303 ft | 0 kts | 330° |